sensor_id;sensor_type;location;lat;lon;timestamp;P1;durP1;ratioP1;P2;durP2;ratioP2
42124;SDS011;27787;44.594;11.046;2023-10-09T07:56:39;14.15;;;2.90;;
42124;SDS011;27787;44.594;11.046;2023-10-09T07:59:30;12.73;;;2.88;;
42124;SDS011;27787;44.594;11.046;2023-10-09T08:02:15;12.20;;;3.08;;
42124;SDS011;27787;44.594;11.046;2023-10-09T08:08:02;18.88;;;3.40;;
42124;SDS011;27787;44.594;11.046;2023-10-09T08:11:08;17.40;;;3.25;;
42124;SDS011;27787;44.594;11.046;2023-10-09T08:14:11;15.65;;;3.15;;
42124;SDS011;27787;44.594;11.046;2023-10-09T08:17:14;12.20;;;2.78;;
42124;SDS011;27787;44.594;11.046;2023-10-09T08:20:05;14.95;;;3.65;;
42124;SDS011;27787;44.594;11.046;2023-10-09T08:22:55;16.75;;;3.50;;
42124;SDS011;27787;44.594;11.046;2023-10-09T08:25:39;20.92;;;4.03;;
42124;SDS011;27787;44.594;11.046;2023-10-09T08:28:41;20.80;;;3.50;;
42124;SDS011;27787;44.594;11.046;2023-10-09T08:31:29;13.45;;;2.95;;
42124;SDS011;27787;44.594;11.046;2023-10-09T08:34:28;12.85;;;3.00;;
42124;SDS011;27787;44.594;11.046;2023-10-09T08:37:19;25.73;;;3.65;;
42124;SDS011;27787;44.594;11.046;2023-10-09T08:40:08;12.77;;;2.72;;
42124;SDS011;27787;44.594;11.046;2023-10-09T08:42:54;18.35;;;3.33;;
42124;SDS011;27787;44.594;11.046;2023-10-09T08:45:45;12.85;;;2.30;;
42124;SDS011;27787;44.594;11.046;2023-10-09T08:48:36;8.38;;;2.53;;
42124;SDS011;27787;44.594;11.046;2023-10-09T08:51:27;5.43;;;2.50;;
42124;SDS011;27787;44.594;11.046;2023-10-09T08:54:13;21.52;;;3.53;;
42124;SDS011;27787;44.594;11.046;2023-10-09T08:56:58;23.65;;;4.00;;
42124;SDS011;27787;44.594;11.046;2023-10-09T08:59:42;16.85;;;3.45;;
42124;SDS011;27787;44.594;11.046;2023-10-09T09:02:27;23.20;;;3.60;;
42124;SDS011;27787;44.594;11.046;2023-10-09T09:08:00;10.93;;;2.92;;
42124;SDS011;27787;44.594;11.046;2023-10-09T09:10:44;23.17;;;4.35;;
42124;SDS011;27787;44.594;11.046;2023-10-09T09:13:30;16.48;;;4.13;;
42124;SDS011;27787;44.594;11.046;2023-10-09T09:16:20;13.93;;;2.92;;
42124;SDS011;27787;44.594;11.046;2023-10-09T09:19:06;12.23;;;2.92;;
42124;SDS011;27787;44.594;11.046;2023-10-09T09:21:56;16.23;;;3.28;;
42124;SDS011;27787;44.594;11.046;2023-10-09T09:24:43;12.57;;;3.17;;
42124;SDS011;27787;44.594;11.046;2023-10-09T09:27:47;12.10;;;3.10;;
42124;SDS011;27787;44.594;11.046;2023-10-09T09:30:39;15.23;;;3.83;;
42124;SDS011;27787;44.594;11.046;2023-10-09T09:33:26;15.02;;;3.95;;
42124;SDS011;27787;44.594;11.046;2023-10-09T09:36:14;15.93;;;2.95;;
42124;SDS011;27787;44.594;11.046;2023-10-09T09:38:58;21.55;;;3.45;;
42124;SDS011;27787;44.594;11.046;2023-10-09T09:41:45;9.38;;;2.60;;
42124;SDS011;27787;44.594;11.046;2023-10-09T09:44:30;17.10;;;2.58;;
42124;SDS011;27787;44.594;11.046;2023-10-09T09:47:17;11.88;;;3.10;;
42124;SDS011;27787;44.594;11.046;2023-10-09T09:50:14;14.13;;;3.67;;
42124;SDS011;27787;44.594;11.046;2023-10-09T09:53:08;21.80;;;2.83;;
42124;SDS011;27787;44.594;11.046;2023-10-09T09:56:00;10.85;;;3.30;;
42124;SDS011;27787;44.594;11.046;2023-10-09T09:58:46;10.15;;;3.08;;
42124;SDS011;27787;44.594;11.046;2023-10-09T10:01:37;14.20;;;3.35;;
42124;SDS011;27787;44.594;11.046;2023-10-09T10:04:24;11.50;;;2.60;;
42124;SDS011;27787;44.594;11.046;2023-10-09T10:07:12;10.05;;;2.88;;
42124;SDS011;27787;44.594;11.046;2023-10-09T10:10:00;17.60;;;3.58;;
42124;SDS011;27787;44.594;11.046;2023-10-09T10:12:52;14.15;;;3.20;;
42124;SDS011;27787;44.594;11.046;2023-10-09T10:15:58;18.20;;;3.72;;
42124;SDS011;27787;44.594;11.046;2023-10-09T10:19:09;18.35;;;4.30;;
42124;SDS011;27787;44.594;11.046;2023-10-09T10:22:22;14.55;;;3.97;;
42124;SDS011;27787;44.594;11.046;2023-10-09T10:25:07;15.77;;;4.18;;
42124;SDS011;27787;44.594;11.046;2023-10-09T10:28:17;18.67;;;3.17;;
42124;SDS011;27787;44.594;11.046;2023-10-09T10:34:52;10.85;;;3.47;;
42124;SDS011;27787;44.594;11.046;2023-10-09T10:37:39;13.95;;;3.35;;
42124;SDS011;27787;44.594;11.046;2023-10-09T10:40:44;15.48;;;3.22;;
42124;SDS011;27787;44.594;11.046;2023-10-09T10:43:40;12.38;;;3.10;;
42124;SDS011;27787;44.594;11.046;2023-10-09T10:46:40;13.77;;;3.67;;
42124;SDS011;27787;44.594;11.046;2023-10-09T10:49:28;18.02;;;3.40;;
42124;SDS011;27787;44.594;11.046;2023-10-09T10:52:21;13.63;;;2.70;;
42124;SDS011;27787;44.594;11.046;2023-10-09T10:55:29;9.40;;;2.45;;
42124;SDS011;27787;44.594;11.046;2023-10-09T10:58:19;11.13;;;3.92;;
42124;SDS011;27787;44.594;11.046;2023-10-09T11:01:07;10.73;;;2.80;;
42124;SDS011;27787;44.594;11.046;2023-10-09T11:04:09;10.60;;;3.08;;
42124;SDS011;27787;44.594;11.046;2023-10-09T11:06:56;12.95;;;2.35;;
42124;SDS011;27787;44.594;11.046;2023-10-09T11:09:51;11.38;;;3.00;;
42124;SDS011;27787;44.594;11.046;2023-10-09T11:12:48;16.60;;;3.47;;
42124;SDS011;27787;44.594;11.046;2023-10-09T11:15:36;12.48;;;3.33;;
42124;SDS011;27787;44.594;11.046;2023-10-09T11:18:28;15.00;;;3.33;;
42124;SDS011;27787;44.594;11.046;2023-10-09T11:21:13;16.80;;;2.95;;
42124;SDS011;27787;44.594;11.046;2023-10-09T11:23:59;12.10;;;2.75;;
42124;SDS011;27787;44.594;11.046;2023-10-09T11:27:04;8.10;;;3.00;;
42124;SDS011;27787;44.594;11.046;2023-10-09T11:29:49;11.13;;;3.03;;
42124;SDS011;27787;44.594;11.046;2023-10-09T11:32:35;15.20;;;3.00;;
42124;SDS011;27787;44.594;11.046;2023-10-09T11:35:21;10.32;;;3.05;;
42124;SDS011;27787;44.594;11.046;2023-10-09T11:38:12;12.23;;;3.15;;
42124;SDS011;27787;44.594;11.046;2023-10-09T11:41:15;14.30;;;2.85;;
42124;SDS011;27787;44.594;11.046;2023-10-09T11:44:03;10.63;;;2.90;;
42124;SDS011;27787;44.594;11.046;2023-10-09T11:46:58;13.20;;;2.83;;
42124;SDS011;27787;44.594;11.046;2023-10-09T11:49:58;12.30;;;2.75;;
42124;SDS011;27787;44.594;11.046;2023-10-09T11:52:55;18.23;;;3.15;;
42124;SDS011;27787;44.594;11.046;2023-10-09T11:55:53;11.50;;;2.72;;
42124;SDS011;27787;44.594;11.046;2023-10-09T11:58:37;18.92;;;3.17;;
42124;SDS011;27787;44.594;11.046;2023-10-09T12:01:24;14.85;;;3.30;;
42124;SDS011;27787;44.594;11.046;2023-10-09T12:04:10;10.85;;;3.28;;
42124;SDS011;27787;44.594;11.046;2023-10-09T12:06:56;11.20;;;2.92;;
42124;SDS011;27787;44.594;11.046;2023-10-09T12:09:50;11.93;;;2.65;;
42124;SDS011;27787;44.594;11.046;2023-10-09T12:12:40;14.38;;;3.30;;
42124;SDS011;27787;44.594;11.046;2023-10-09T12:15:30;15.27;;;3.45;;
42124;SDS011;27787;44.594;11.046;2023-10-09T12:18:21;23.20;;;3.75;;
42124;SDS011;27787;44.594;11.046;2023-10-09T12:21:07;15.75;;;3.45;;
42124;SDS011;27787;44.594;11.046;2023-10-09T12:23:52;20.75;;;3.97;;
42124;SDS011;27787;44.594;11.046;2023-10-09T12:26:41;15.02;;;3.35;;
42124;SDS011;27787;44.594;11.046;2023-10-09T12:29:26;14.95;;;3.33;;
42124;SDS011;27787;44.594;11.046;2023-10-09T12:32:16;13.60;;;4.32;;
42124;SDS011;27787;44.594;11.046;2023-10-09T12:35:04;14.60;;;3.53;;
42124;SDS011;27787;44.594;11.046;2023-10-09T12:38:00;14.25;;;3.35;;
42124;SDS011;27787;44.594;11.046;2023-10-09T12:40:45;11.27;;;3.70;;
42124;SDS011;27787;44.594;11.046;2023-10-09T12:43:36;11.52;;;3.65;;
42124;SDS011;27787;44.594;11.046;2023-10-09T12:46:22;11.25;;;3.80;;
42124;SDS011;27787;44.594;11.046;2023-10-09T12:49:16;14.05;;;3.30;;
42124;SDS011;27787;44.594;11.046;2023-10-09T12:52:00;17.15;;;2.80;;
42124;SDS011;27787;44.594;11.046;2023-10-09T12:54:45;16.23;;;4.13;;
42124;SDS011;27787;44.594;11.046;2023-10-09T12:57:30;14.75;;;4.03;;
42124;SDS011;27787;44.594;11.046;2023-10-09T13:00:14;19.02;;;3.50;;
42124;SDS011;27787;44.594;11.046;2023-10-09T13:03:08;18.52;;;4.35;;
42124;SDS011;27787;44.594;11.046;2023-10-09T13:06:02;17.08;;;3.78;;
42124;SDS011;27787;44.594;11.046;2023-10-09T13:08:51;15.15;;;3.05;;
42124;SDS011;27787;44.594;11.046;2023-10-09T13:11:35;12.30;;;3.20;;
42124;SDS011;27787;44.594;11.046;2023-10-09T13:14:21;13.45;;;2.92;;
42124;SDS011;27787;44.594;11.046;2023-10-09T13:17:09;9.63;;;3.25;;
42124;SDS011;27787;44.594;11.046;2023-10-09T13:19:53;20.05;;;3.05;;
42124;SDS011;27787;44.594;11.046;2023-10-09T13:22:40;13.80;;;3.40;;
42124;SDS011;27787;44.594;11.046;2023-10-09T13:25:24;15.07;;;4.18;;
42124;SDS011;27787;44.594;11.046;2023-10-09T13:28:10;16.38;;;3.90;;
42124;SDS011;27787;44.594;11.046;2023-10-09T13:30:54;11.68;;;3.58;;
42124;SDS011;27787;44.594;11.046;2023-10-09T13:33:39;14.70;;;3.47;;
42124;SDS011;27787;44.594;11.046;2023-10-09T13:36:24;15.23;;;3.22;;
42124;SDS011;27787;44.594;11.046;2023-10-09T13:39:15;12.68;;;3.30;;
42124;SDS011;27787;44.594;11.046;2023-10-09T13:42:09;14.70;;;3.17;;
42124;SDS011;27787;44.594;11.046;2023-10-09T13:44:54;21.30;;;3.50;;
42124;SDS011;27787;44.594;11.046;2023-10-09T13:47:39;20.38;;;3.35;;
42124;SDS011;27787;44.594;11.046;2023-10-09T13:50:26;19.58;;;3.05;;
42124;SDS011;27787;44.594;11.046;2023-10-09T13:53:17;11.30;;;3.53;;
42124;SDS011;27787;44.594;11.046;2023-10-09T13:56:02;10.02;;;3.08;;
42124;SDS011;27787;44.594;11.046;2023-10-09T13:58:50;14.82;;;3.05;;
42124;SDS011;27787;44.594;11.046;2023-10-09T14:01:35;12.35;;;3.55;;
42124;SDS011;27787;44.594;11.046;2023-10-09T14:04:20;16.90;;;3.03;;
42124;SDS011;27787;44.594;11.046;2023-10-09T14:07:05;19.63;;;3.65;;
42124;SDS011;27787;44.594;11.046;2023-10-09T14:09:52;15.63;;;3.10;;
42124;SDS011;27787;44.594;11.046;2023-10-09T14:12:39;21.52;;;3.58;;
42124;SDS011;27787;44.594;11.046;2023-10-09T14:15:24;17.05;;;3.70;;
42124;SDS011;27787;44.594;11.046;2023-10-09T14:18:08;12.83;;;3.37;;
42124;SDS011;27787;44.594;11.046;2023-10-09T14:20:55;13.88;;;2.75;;
42124;SDS011;27787;44.594;11.046;2023-10-09T14:23:40;13.52;;;3.42;;
42124;SDS011;27787;44.594;11.046;2023-10-09T14:26:29;17.30;;;4.18;;
42124;SDS011;27787;44.594;11.046;2023-10-09T14:29:14;14.85;;;3.45;;
42124;SDS011;27787;44.594;11.046;2023-10-09T14:32:00;15.80;;;3.33;;
42124;SDS011;27787;44.594;11.046;2023-10-09T14:34:45;13.82;;;3.30;;
42124;SDS011;27787;44.594;11.046;2023-10-09T14:37:36;17.23;;;3.80;;
42124;SDS011;27787;44.594;11.046;2023-10-09T14:40:23;21.15;;;4.40;;
42124;SDS011;27787;44.594;11.046;2023-10-09T14:43:16;21.85;;;3.28;;
42124;SDS011;27787;44.594;11.046;2023-10-09T14:46:03;23.95;;;4.28;;
42124;SDS011;27787;44.594;11.046;2023-10-09T14:48:54;20.65;;;3.85;;
42124;SDS011;27787;44.594;11.046;2023-10-09T14:51:39;12.00;;;2.58;;
42124;SDS011;27787;44.594;11.046;2023-10-09T14:54:23;15.73;;;3.05;;
42124;SDS011;27787;44.594;11.046;2023-10-09T14:57:10;7.93;;;3.20;;
42124;SDS011;27787;44.594;11.046;2023-10-09T14:59:55;12.18;;;2.75;;
42124;SDS011;27787;44.594;11.046;2023-10-09T15:02:40;13.25;;;3.22;;
42124;SDS011;27787;44.594;11.046;2023-10-09T15:05:24;19.58;;;3.33;;
42124;SDS011;27787;44.594;11.046;2023-10-09T15:08:08;11.35;;;3.47;;
42124;SDS011;27787;44.594;11.046;2023-10-09T15:10:55;9.38;;;3.60;;
42124;SDS011;27787;44.594;11.046;2023-10-09T15:16:24;13.02;;;3.00;;
42124;SDS011;27787;44.594;11.046;2023-10-09T15:19:14;19.58;;;3.42;;
42124;SDS011;27787;44.594;11.046;2023-10-09T15:22:00;17.10;;;3.15;;
42124;SDS011;27787;44.594;11.046;2023-10-09T15:24:44;21.75;;;3.70;;
42124;SDS011;27787;44.594;11.046;2023-10-09T15:27:28;11.20;;;2.95;;
42124;SDS011;27787;44.594;11.046;2023-10-09T15:30:12;14.70;;;4.20;;
42124;SDS011;27787;44.594;11.046;2023-10-09T15:33:00;20.42;;;4.68;;
42124;SDS011;27787;44.594;11.046;2023-10-09T15:35:45;13.55;;;3.47;;
42124;SDS011;27787;44.594;11.046;2023-10-09T15:38:35;20.63;;;4.38;;
42124;SDS011;27787;44.594;11.046;2023-10-09T15:41:20;26.17;;;4.20;;
42124;SDS011;27787;44.594;11.046;2023-10-09T15:44:05;24.50;;;4.60;;
42124;SDS011;27787;44.594;11.046;2023-10-09T15:46:50;15.60;;;3.67;;
42124;SDS011;27787;44.594;11.046;2023-10-09T15:49:41;20.13;;;4.40;;
42124;SDS011;27787;44.594;11.046;2023-10-09T15:52:27;12.30;;;3.72;;
42124;SDS011;27787;44.594;11.046;2023-10-09T15:55:11;17.30;;;4.27;;
42124;SDS011;27787;44.594;11.046;2023-10-09T15:57:58;22.50;;;4.00;;
42124;SDS011;27787;44.594;11.046;2023-10-09T16:00:43;17.67;;;4.20;;
42124;SDS011;27787;44.594;11.046;2023-10-09T16:06:12;15.30;;;4.28;;
42124;SDS011;27787;44.594;11.046;2023-10-09T16:08:56;17.65;;;3.72;;
42124;SDS011;27787;44.594;11.046;2023-10-09T16:11:41;18.08;;;4.22;;
42124;SDS011;27787;44.594;11.046;2023-10-09T16:14:25;13.85;;;3.97;;
42124;SDS011;27787;44.594;11.046;2023-10-09T16:17:09;12.47;;;3.63;;
42124;SDS011;27787;44.594;11.046;2023-10-09T16:19:53;22.55;;;4.45;;
42124;SDS011;27787;44.594;11.046;2023-10-09T16:22:42;22.25;;;4.40;;
42124;SDS011;27787;44.594;11.046;2023-10-09T16:25:32;20.25;;;4.78;;
42124;SDS011;27787;44.594;11.046;2023-10-09T16:28:19;18.02;;;4.00;;
42124;SDS011;27787;44.594;11.046;2023-10-09T16:31:03;22.75;;;4.03;;
42124;SDS011;27787;44.594;11.046;2023-10-09T16:33:49;19.42;;;4.18;;
42124;SDS011;27787;44.594;11.046;2023-10-09T16:39:19;17.80;;;4.40;;
42124;SDS011;27787;44.594;11.046;2023-10-09T16:42:06;11.50;;;4.10;;
42124;SDS011;27787;44.594;11.046;2023-10-09T16:44:53;17.50;;;3.40;;
42124;SDS011;27787;44.594;11.046;2023-10-09T16:47:39;23.08;;;4.22;;
42124;SDS011;27787;44.594;11.046;2023-10-09T16:50:24;23.70;;;4.63;;
42124;SDS011;27787;44.594;11.046;2023-10-09T16:53:12;17.02;;;4.28;;
42124;SDS011;27787;44.594;11.046;2023-10-09T16:55:56;29.60;;;6.80;;
42124;SDS011;27787;44.594;11.046;2023-10-09T16:58:41;36.80;;;9.40;;
42124;SDS011;27787;44.594;11.046;2023-10-09T17:01:25;21.17;;;6.13;;
42124;SDS011;27787;44.594;11.046;2023-10-09T17:04:11;20.90;;;5.30;;
42124;SDS011;27787;44.594;11.046;2023-10-09T17:07:00;20.15;;;4.50;;
42124;SDS011;27787;44.594;11.046;2023-10-09T17:12:31;18.23;;;3.40;;
42124;SDS011;27787;44.594;11.046;2023-10-09T17:15:15;17.55;;;4.30;;
42124;SDS011;27787;44.594;11.046;2023-10-09T17:20:44;14.10;;;3.88;;
42124;SDS011;27787;44.594;11.046;2023-10-09T17:23:32;17.83;;;4.10;;
42124;SDS011;27787;44.594;11.046;2023-10-09T17:26:16;12.88;;;4.43;;
42124;SDS011;27787;44.594;11.046;2023-10-09T17:29:06;17.42;;;3.90;;
42124;SDS011;27787;44.594;11.046;2023-10-09T17:31:53;19.25;;;3.80;;
42124;SDS011;27787;44.594;11.046;2023-10-09T17:34:38;16.67;;;4.43;;
42124;SDS011;27787;44.594;11.046;2023-10-09T17:37:23;24.98;;;5.60;;
42124;SDS011;27787;44.594;11.046;2023-10-09T17:40:08;16.35;;;4.25;;
42124;SDS011;27787;44.594;11.046;2023-10-09T17:42:52;12.63;;;4.93;;
42124;SDS011;27787;44.594;11.046;2023-10-09T17:45:39;21.35;;;5.32;;
42124;SDS011;27787;44.594;11.046;2023-10-09T17:48:25;12.93;;;4.25;;
42124;SDS011;27787;44.594;11.046;2023-10-09T17:51:09;32.47;;;4.77;;
42124;SDS011;27787;44.594;11.046;2023-10-09T17:53:53;15.38;;;4.82;;
42124;SDS011;27787;44.594;11.046;2023-10-09T17:56:37;14.40;;;4.03;;
42124;SDS011;27787;44.594;11.046;2023-10-09T17:59:21;17.40;;;4.07;;
42124;SDS011;27787;44.594;11.046;2023-10-09T18:02:06;20.05;;;4.57;;
42124;SDS011;27787;44.594;11.046;2023-10-09T18:04:51;15.55;;;4.22;;
42124;SDS011;27787;44.594;11.046;2023-10-09T18:07:35;22.85;;;4.78;;
42124;SDS011;27787;44.594;11.046;2023-10-09T18:10:21;16.50;;;4.47;;
42124;SDS011;27787;44.594;11.046;2023-10-09T18:13:07;26.02;;;5.18;;
42124;SDS011;27787;44.594;11.046;2023-10-09T18:16:12;15.00;;;4.95;;
42124;SDS011;27787;44.594;11.046;2023-10-09T18:18:56;17.38;;;4.82;;
42124;SDS011;27787;44.594;11.046;2023-10-09T18:21:41;21.50;;;5.00;;
42124;SDS011;27787;44.594;11.046;2023-10-09T18:24:25;22.23;;;5.05;;
42124;SDS011;27787;44.594;11.046;2023-10-09T18:27:09;13.13;;;4.70;;
42124;SDS011;27787;44.594;11.046;2023-10-09T18:30:03;13.43;;;5.00;;
42124;SDS011;27787;44.594;11.046;2023-10-09T18:32:49;18.08;;;4.80;;
42124;SDS011;27787;44.594;11.046;2023-10-09T18:35:33;19.67;;;4.65;;
42124;SDS011;27787;44.594;11.046;2023-10-09T18:38:18;13.15;;;4.43;;
42124;SDS011;27787;44.594;11.046;2023-10-09T18:41:04;22.15;;;4.25;;
42124;SDS011;27787;44.594;11.046;2023-10-09T18:43:51;15.85;;;4.47;;
42124;SDS011;27787;44.594;11.046;2023-10-09T18:46:38;15.05;;;4.60;;
42124;SDS011;27787;44.594;11.046;2023-10-09T18:49:22;19.90;;;4.18;;
42124;SDS011;27787;44.594;11.046;2023-10-09T18:52:07;13.07;;;4.43;;
42124;SDS011;27787;44.594;11.046;2023-10-09T18:54:53;17.95;;;4.82;;
42124;SDS011;27787;44.594;11.046;2023-10-09T18:57:39;19.42;;;4.10;;
42124;SDS011;27787;44.594;11.046;2023-10-09T19:00:24;24.10;;;5.53;;
42124;SDS011;27787;44.594;11.046;2023-10-09T19:03:14;15.88;;;4.60;;
42124;SDS011;27787;44.594;11.046;2023-10-09T19:06:04;24.23;;;4.68;;
42124;SDS011;27787;44.594;11.046;2023-10-09T19:08:52;14.27;;;4.43;;
42124;SDS011;27787;44.594;11.046;2023-10-09T19:11:39;26.77;;;4.47;;
42124;SDS011;27787;44.594;11.046;2023-10-09T19:17:09;22.33;;;4.60;;
42124;SDS011;27787;44.594;11.046;2023-10-09T19:19:53;13.70;;;4.78;;
42124;SDS011;27787;44.594;11.046;2023-10-09T19:22:38;25.50;;;5.20;;
42124;SDS011;27787;44.594;11.046;2023-10-09T19:25:23;14.40;;;5.15;;
42124;SDS011;27787;44.594;11.046;2023-10-09T19:28:11;20.63;;;4.90;;
42124;SDS011;27787;44.594;11.046;2023-10-09T19:31:05;15.02;;;4.63;;
42124;SDS011;27787;44.594;11.046;2023-10-09T19:33:53;17.65;;;4.90;;
42124;SDS011;27787;44.594;11.046;2023-10-09T19:36:37;16.10;;;4.93;;
42124;SDS011;27787;44.594;11.046;2023-10-09T19:39:24;17.55;;;5.60;;
42124;SDS011;27787;44.594;11.046;2023-10-09T19:42:08;18.42;;;4.63;;
42124;SDS011;27787;44.594;11.046;2023-10-09T19:47:37;11.25;;;3.20;;
42124;SDS011;27787;44.594;11.046;2023-10-09T19:50:25;17.65;;;3.90;;
42124;SDS011;27787;44.594;11.046;2023-10-09T19:53:09;19.65;;;4.43;;
42124;SDS011;27787;44.594;11.046;2023-10-09T19:55:53;18.73;;;4.68;;
42124;SDS011;27787;44.594;11.046;2023-10-09T19:58:40;19.02;;;4.72;;
42124;SDS011;27787;44.594;11.046;2023-10-09T20:01:24;17.83;;;4.32;;
42124;SDS011;27787;44.594;11.046;2023-10-09T20:04:09;12.60;;;3.67;;
42124;SDS011;27787;44.594;11.046;2023-10-09T20:06:54;21.58;;;5.10;;
42124;SDS011;27787;44.594;11.046;2023-10-09T20:09:38;14.35;;;3.83;;
42124;SDS011;27787;44.594;11.046;2023-10-09T20:12:22;21.83;;;4.53;;
42124;SDS011;27787;44.594;11.046;2023-10-09T20:15:07;16.75;;;3.70;;
42124;SDS011;27787;44.594;11.046;2023-10-09T20:17:57;14.95;;;4.13;;
42124;SDS011;27787;44.594;11.046;2023-10-09T20:20:44;13.80;;;3.72;;
42124;SDS011;27787;44.594;11.046;2023-10-09T20:23:32;19.30;;;3.92;;
42124;SDS011;27787;44.594;11.046;2023-10-09T20:26:17;17.88;;;4.03;;
42124;SDS011;27787;44.594;11.046;2023-10-09T20:29:01;20.92;;;5.35;;
42124;SDS011;27787;44.594;11.046;2023-10-09T20:31:45;12.88;;;3.35;;
42124;SDS011;27787;44.594;11.046;2023-10-09T20:34:31;17.58;;;4.22;;
42124;SDS011;27787;44.594;11.046;2023-10-09T20:37:16;20.80;;;4.35;;
42124;SDS011;27787;44.594;11.046;2023-10-09T20:40:00;11.40;;;4.03;;
42124;SDS011;27787;44.594;11.046;2023-10-09T20:42:47;11.07;;;4.20;;
42124;SDS011;27787;44.594;11.046;2023-10-09T20:45:38;20.23;;;4.80;;
42124;SDS011;27787;44.594;11.046;2023-10-09T20:48:23;24.98;;;4.32;;
42124;SDS011;27787;44.594;11.046;2023-10-09T20:51:07;23.40;;;4.90;;
42124;SDS011;27787;44.594;11.046;2023-10-09T20:53:54;24.35;;;4.20;;
42124;SDS011;27787;44.594;11.046;2023-10-09T20:56:38;15.45;;;3.42;;
42124;SDS011;27787;44.594;11.046;2023-10-09T20:59:24;18.48;;;4.38;;
42124;SDS011;27787;44.594;11.046;2023-10-09T21:02:08;14.00;;;3.73;;
42124;SDS011;27787;44.594;11.046;2023-10-09T21:04:52;13.30;;;3.37;;
42124;SDS011;27787;44.594;11.046;2023-10-09T21:07:37;12.30;;;3.23;;
42124;SDS011;27787;44.594;11.046;2023-10-09T21:10:21;12.38;;;3.63;;
42124;SDS011;27787;44.594;11.046;2023-10-09T21:13:06;13.05;;;3.35;;
42124;SDS011;27787;44.594;11.046;2023-10-09T21:15:54;14.00;;;3.38;;
42124;SDS011;27787;44.594;11.046;2023-10-09T21:18:38;19.13;;;4.18;;
42124;SDS011;27787;44.594;11.046;2023-10-09T21:21:22;16.50;;;4.18;;
42124;SDS011;27787;44.594;11.046;2023-10-09T21:24:07;15.18;;;4.70;;
42124;SDS011;27787;44.594;11.046;2023-10-09T21:29:38;18.90;;;3.63;;
42124;SDS011;27787;44.594;11.046;2023-10-09T21:32:22;7.97;;;3.30;;
42124;SDS011;27787;44.594;11.046;2023-10-09T21:35:11;11.48;;;3.67;;
42124;SDS011;27787;44.594;11.046;2023-10-09T21:37:59;14.45;;;4.55;;
42124;SDS011;27787;44.594;11.046;2023-10-09T21:40:43;15.63;;;4.25;;
42124;SDS011;27787;44.594;11.046;2023-10-09T21:43:28;13.13;;;4.17;;
42124;SDS011;27787;44.594;11.046;2023-10-09T21:46:14;13.73;;;4.40;;
42124;SDS011;27787;44.594;11.046;2023-10-09T21:48:59;15.87;;;4.23;;
42124;SDS011;27787;44.594;11.046;2023-10-09T21:51:43;12.52;;;3.53;;
42124;SDS011;27787;44.594;11.046;2023-10-09T21:54:27;14.23;;;3.83;;
42124;SDS011;27787;44.594;11.046;2023-10-09T21:57:11;15.95;;;4.68;;
42124;SDS011;27787;44.594;11.046;2023-10-09T21:59:56;9.23;;;3.43;;
42124;SDS011;27787;44.594;11.046;2023-10-09T22:02:40;15.93;;;4.78;;
42124;SDS011;27787;44.594;11.046;2023-10-09T22:05:27;15.65;;;4.20;;
42124;SDS011;27787;44.594;11.046;2023-10-09T22:08:14;14.52;;;3.95;;
42124;SDS011;27787;44.594;11.046;2023-10-09T22:10:58;17.98;;;4.70;;
42124;SDS011;27787;44.594;11.046;2023-10-09T22:13:42;12.80;;;4.47;;
42124;SDS011;27787;44.594;11.046;2023-10-09T22:16:29;17.02;;;3.92;;
42124;SDS011;27787;44.594;11.046;2023-10-09T22:19:13;15.90;;;3.38;;
42124;SDS011;27787;44.594;11.046;2023-10-09T22:21:57;18.75;;;4.22;;
42124;SDS011;27787;44.594;11.046;2023-10-09T22:24:41;14.15;;;3.92;;
42124;SDS011;27787;44.594;11.046;2023-10-09T22:27:27;16.55;;;4.13;;
42124;SDS011;27787;44.594;11.046;2023-10-09T22:30:18;18.80;;;4.75;;
42124;SDS011;27787;44.594;11.046;2023-10-09T22:33:13;18.15;;;3.97;;
42124;SDS011;27787;44.594;11.046;2023-10-09T22:36:03;17.55;;;3.95;;
42124;SDS011;27787;44.594;11.046;2023-10-09T22:38:49;17.13;;;4.47;;
42124;SDS011;27787;44.594;11.046;2023-10-09T22:41:38;20.90;;;5.00;;
42124;SDS011;27787;44.594;11.046;2023-10-09T22:44:24;12.60;;;4.55;;
42124;SDS011;27787;44.594;11.046;2023-10-09T22:47:08;14.13;;;4.10;;
42124;SDS011;27787;44.594;11.046;2023-10-09T22:49:53;16.73;;;3.78;;
42124;SDS011;27787;44.594;11.046;2023-10-09T22:52:37;18.17;;;3.90;;
42124;SDS011;27787;44.594;11.046;2023-10-09T22:55:21;19.73;;;4.18;;
42124;SDS011;27787;44.594;11.046;2023-10-09T22:58:11;14.18;;;4.13;;
42124;SDS011;27787;44.594;11.046;2023-10-09T23:00:59;20.42;;;4.75;;
42124;SDS011;27787;44.594;11.046;2023-10-09T23:03:44;13.13;;;4.70;;
42124;SDS011;27787;44.594;11.046;2023-10-09T23:06:48;11.32;;;3.90;;
42124;SDS011;27787;44.594;11.046;2023-10-09T23:09:32;15.50;;;5.28;;
42124;SDS011;27787;44.594;11.046;2023-10-09T23:12:20;16.07;;;4.00;;
42124;SDS011;27787;44.594;11.046;2023-10-09T23:15:19;17.88;;;4.70;;
42124;SDS011;27787;44.594;11.046;2023-10-09T23:18:19;13.35;;;3.90;;
42124;SDS011;27787;44.594;11.046;2023-10-09T23:21:16;12.98;;;3.60;;
42124;SDS011;27787;44.594;11.046;2023-10-09T23:24:03;9.57;;;3.90;;
42124;SDS011;27787;44.594;11.046;2023-10-09T23:26:54;12.43;;;3.85;;
42124;SDS011;27787;44.594;11.046;2023-10-09T23:29:39;20.05;;;4.45;;
42124;SDS011;27787;44.594;11.046;2023-10-09T23:32:35;12.65;;;3.38;;
42124;SDS011;27787;44.594;11.046;2023-10-09T23:35:20;14.68;;;3.88;;
42124;SDS011;27787;44.594;11.046;2023-10-09T23:38:26;22.50;;;4.40;;
42124;SDS011;27787;44.594;11.046;2023-10-09T23:41:39;15.85;;;3.63;;
42124;SDS011;27787;44.594;11.046;2023-10-09T23:44:42;10.40;;;3.30;;
42124;SDS011;27787;44.594;11.046;2023-10-09T23:47:26;12.73;;;3.78;;
42124;SDS011;27787;44.594;11.046;2023-10-09T23:50:10;15.73;;;2.90;;
42124;SDS011;27787;44.594;11.046;2023-10-09T23:52:59;16.20;;;4.47;;
42124;SDS011;27787;44.594;11.046;2023-10-09T23:55:45;15.20;;;2.83;;
42124;SDS011;27787;44.594;11.046;2023-10-09T23:58:34;12.25;;;3.17;;
